sensor_id;sensor_type;location;lat;lon;timestamp;temperature;humidity
77052;SHT30;65980;44.898;8.602;2023-03-24T00:00:15;12.22;79.28
77052;SHT30;65980;44.898;8.602;2023-03-24T00:03:19;12.17;79.63
77052;SHT30;65980;44.898;8.602;2023-03-24T00:06:23;12.39;78.43
77052;SHT30;65980;44.898;8.602;2023-03-24T00:09:29;12.55;77.72
77052;SHT30;65980;44.898;8.602;2023-03-24T00:12:35;12.72;77.19
77052;SHT30;65980;44.898;8.602;2023-03-24T00:15:41;12.75;77.14
77052;SHT30;65980;44.898;8.602;2023-03-24T00:18:45;12.83;76.23
77052;SHT30;65980;44.898;8.602;2023-03-24T00:21:53;12.55;77.80
77052;SHT30;65980;44.898;8.602;2023-03-24T00:24:57;12.82;76.79
77052;SHT30;65980;44.898;8.602;2023-03-24T00:28:02;12.89;76.78
77052;SHT30;65980;44.898;8.602;2023-03-24T00:31:08;13.00;76.34
77052;SHT30;65980;44.898;8.602;2023-03-24T00:34:12;13.01;76.36
77052;SHT30;65980;44.898;8.602;2023-03-24T00:37:18;13.10;75.84
77052;SHT30;65980;44.898;8.602;2023-03-24T00:40:23;13.10;75.95
77052;SHT30;65980;44.898;8.602;2023-03-24T00:43:27;12.77;77.29
77052;SHT30;65980;44.898;8.602;2023-03-24T00:46:32;12.75;77.82
77052;SHT30;65980;44.898;8.602;2023-03-24T00:49:37;12.97;76.77
77052;SHT30;65980;44.898;8.602;2023-03-24T00:52:48;13.01;76.55
77052;SHT30;65980;44.898;8.602;2023-03-24T00:55:53;13.10;76.44
77052;SHT30;65980;44.898;8.602;2023-03-24T00:58:58;13.12;76.28
77052;SHT30;65980;44.898;8.602;2023-03-24T01:02:05;12.90;76.77
77052;SHT30;65980;44.898;8.602;2023-03-24T01:05:09;12.93;77.43
77052;SHT30;65980;44.898;8.602;2023-03-24T01:08:14;12.94;77.79
77052;SHT30;65980;44.898;8.602;2023-03-24T01:11:23;13.15;77.31
77052;SHT30;65980;44.898;8.602;2023-03-24T01:14:29;13.20;77.40
77052;SHT30;65980;44.898;8.602;2023-03-24T01:17:34;13.28;77.34
77052;SHT30;65980;44.898;8.602;2023-03-24T01:20:41;13.37;76.76
77052;SHT30;65980;44.898;8.602;2023-03-24T01:23:49;13.45;76.44
77052;SHT30;65980;44.898;8.602;2023-03-24T01:26:53;13.34;76.36
77052;SHT30;65980;44.898;8.602;2023-03-24T01:29:58;13.10;77.44
77052;SHT30;65980;44.898;8.602;2023-03-24T01:33:02;13.46;76.24
77052;SHT30;65980;44.898;8.602;2023-03-24T01:36:07;13.54;75.93
77052;SHT30;65980;44.898;8.602;2023-03-24T01:39:12;13.52;76.03
77052;SHT30;65980;44.898;8.602;2023-03-24T01:42:20;13.25;76.99
77052;SHT30;65980;44.898;8.602;2023-03-24T01:48:56;12.86;78.86
77052;SHT30;65980;44.898;8.602;2023-03-24T01:52:04;12.80;78.95
77052;SHT30;65980;44.898;8.602;2023-03-24T01:55:12;13.10;78.03
77052;SHT30;65980;44.898;8.602;2023-03-24T01:58:22;12.82;79.09
77052;SHT30;65980;44.898;8.602;2023-03-24T02:01:42;13.08;78.17
77052;SHT30;65980;44.898;8.602;2023-03-24T02:05:06;13.28;77.61
77052;SHT30;65980;44.898;8.602;2023-03-24T02:09:00;13.08;78.24
77052;SHT30;65980;44.898;8.602;2023-03-24T02:11:44;13.34;77.34
77052;SHT30;65980;44.898;8.602;2023-03-24T02:14:50;13.34;77.01
77052;SHT30;65980;44.898;8.602;2023-03-24T02:18:12;13.15;77.93
77052;SHT30;65980;44.898;8.602;2023-03-24T02:31:01;12.83;79.44
77052;SHT30;65980;44.898;8.602;2023-03-24T02:37:40;13.06;78.70
77052;SHT30;65980;44.898;8.602;2023-03-24T02:44:05;13.27;77.76
77052;SHT30;65980;44.898;8.602;2023-03-24T02:47:36;13.25;77.62
77052;SHT30;65980;44.898;8.602;2023-03-24T02:57:08;13.21;78.41
77052;SHT30;65980;44.898;8.602;2023-03-24T03:03:47;13.25;78.09
77052;SHT30;65980;44.898;8.602;2023-03-24T03:06:54;13.15;78.95
77052;SHT30;65980;44.898;8.602;2023-03-24T03:13:39;13.37;78.46
77052;SHT30;65980;44.898;8.602;2023-03-24T03:16:50;13.48;78.01
77052;SHT30;65980;44.898;8.602;2023-03-24T03:20:00;13.42;78.20
77052;SHT30;65980;44.898;8.602;2023-03-24T03:23:09;13.49;77.64
77052;SHT30;65980;44.898;8.602;2023-03-24T03:26:15;13.31;78.36
77052;SHT30;65980;44.898;8.602;2023-03-24T03:29:20;13.45;77.92
77052;SHT30;65980;44.898;8.602;2023-03-24T03:32:26;13.51;77.68
77052;SHT30;65980;44.898;8.602;2023-03-24T03:35:33;13.58;77.17
77052;SHT30;65980;44.898;8.602;2023-03-24T03:41:45;13.59;77.18
77052;SHT30;65980;44.898;8.602;2023-03-24T03:44:51;13.51;76.98
77052;SHT30;65980;44.898;8.602;2023-03-24T03:47:56;13.38;77.27
77052;SHT30;65980;44.898;8.602;2023-03-24T03:51:00;13.39;78.02
77052;SHT30;65980;44.898;8.602;2023-03-24T03:54:04;13.38;78.04
77052;SHT30;65980;44.898;8.602;2023-03-24T03:57:10;13.44;77.89
77052;SHT30;65980;44.898;8.602;2023-03-24T04:00:34;13.32;77.73
77052;SHT30;65980;44.898;8.602;2023-03-24T04:04:21;13.44;77.46
77052;SHT30;65980;44.898;8.602;2023-03-24T04:08:03;13.32;77.65
77052;SHT30;65980;44.898;8.602;2023-03-24T04:18:10;13.31;77.14
77052;SHT30;65980;44.898;8.602;2023-03-24T04:24:39;13.29;76.91
77052;SHT30;65980;44.898;8.602;2023-03-24T04:27:53;13.37;76.67
77052;SHT30;65980;44.898;8.602;2023-03-24T04:34:21;13.06;77.87
77052;SHT30;65980;44.898;8.602;2023-03-24T04:37:32;13.14;77.62
77052;SHT30;65980;44.898;8.602;2023-03-24T04:40:46;13.25;77.08
77052;SHT30;65980;44.898;8.602;2023-03-24T04:43:52;13.28;76.74
77052;SHT30;65980;44.898;8.602;2023-03-24T04:46:59;13.24;77.07
77052;SHT30;65980;44.898;8.602;2023-03-24T04:50:05;13.44;76.25
77052;SHT30;65980;44.898;8.602;2023-03-24T04:53:13;13.39;76.43
77052;SHT30;65980;44.898;8.602;2023-03-24T04:56:24;13.45;76.31
77052;SHT30;65980;44.898;8.602;2023-03-24T04:59:43;13.42;76.72
77052;SHT30;65980;44.898;8.602;2023-03-24T05:02:49;13.39;77.50
77052;SHT30;65980;44.898;8.602;2023-03-24T05:06:03;13.66;77.01
77052;SHT30;65980;44.898;8.602;2023-03-24T05:09:09;13.70;76.88
77052;SHT30;65980;44.898;8.602;2023-03-24T05:12:12;13.77;76.91
77052;SHT30;65980;44.898;8.602;2023-03-24T05:15:45;13.80;76.98
77052;SHT30;65980;44.898;8.602;2023-03-24T05:19:00;13.84;76.98
77052;SHT30;65980;44.898;8.602;2023-03-24T05:22:08;13.83;76.80
77052;SHT30;65980;44.898;8.602;2023-03-24T05:25:12;13.93;76.39
77052;SHT30;65980;44.898;8.602;2023-03-24T05:28:15;13.83;76.69
77052;SHT30;65980;44.898;8.602;2023-03-24T05:31:21;13.96;76.16
77052;SHT30;65980;44.898;8.602;2023-03-24T05:34:30;13.70;76.93
77052;SHT30;65980;44.898;8.602;2023-03-24T05:37:48;13.73;76.81
77052;SHT30;65980;44.898;8.602;2023-03-24T05:40:54;13.82;76.23
77052;SHT30;65980;44.898;8.602;2023-03-24T05:43:58;13.93;75.61
77052;SHT30;65980;44.898;8.602;2023-03-24T05:47:03;14.03;75.28
77052;SHT30;65980;44.898;8.602;2023-03-24T05:50:07;14.04;75.02
77052;SHT30;65980;44.898;8.602;2023-03-24T05:53:12;14.16;74.75
77052;SHT30;65980;44.898;8.602;2023-03-24T05:56:36;14.13;74.56
77052;SHT30;65980;44.898;8.602;2023-03-24T05:59:54;14.06;74.92
77052;SHT30;65980;44.898;8.602;2023-03-24T06:03:17;14.06;74.53
77052;SHT30;65980;44.898;8.602;2023-03-24T06:06:34;13.84;75.57
77052;SHT30;65980;44.898;8.602;2023-03-24T06:09:40;13.93;75.25
77052;SHT30;65980;44.898;8.602;2023-03-24T06:12:48;13.90;75.36
77052;SHT30;65980;44.898;8.602;2023-03-24T06:15:52;13.80;75.64
77052;SHT30;65980;44.898;8.602;2023-03-24T06:19:24;13.65;76.36
77052;SHT30;65980;44.898;8.602;2023-03-24T06:22:54;13.97;75.27
77052;SHT30;65980;44.898;8.602;2023-03-24T06:26:07;13.96;75.10
77052;SHT30;65980;44.898;8.602;2023-03-24T06:29:13;14.11;74.25
77052;SHT30;65980;44.898;8.602;2023-03-24T06:32:20;14.09;74.64
77052;SHT30;65980;44.898;8.602;2023-03-24T06:35:27;14.21;74.03
77052;SHT30;65980;44.898;8.602;2023-03-24T06:38:40;14.44;73.39
77052;SHT30;65980;44.898;8.602;2023-03-24T06:41:44;14.41;73.47
77052;SHT30;65980;44.898;8.602;2023-03-24T06:44:48;14.48;73.28
77052;SHT30;65980;44.898;8.602;2023-03-24T06:47:54;14.49;73.54
77052;SHT30;65980;44.898;8.602;2023-03-24T06:51:02;14.59;73.04
77052;SHT30;65980;44.898;8.602;2023-03-24T06:54:09;14.42;73.78
77052;SHT30;65980;44.898;8.602;2023-03-24T06:57:16;14.55;73.23
77052;SHT30;65980;44.898;8.602;2023-03-24T07:00:43;14.58;73.63
77052;SHT30;65980;44.898;8.602;2023-03-24T07:04:13;14.72;73.24
77052;SHT30;65980;44.898;8.602;2023-03-24T07:07:37;14.69;73.06
77052;SHT30;65980;44.898;8.602;2023-03-24T07:11:03;14.91;72.48
77052;SHT30;65980;44.898;8.602;2023-03-24T07:14:08;15.11;71.76
77052;SHT30;65980;44.898;8.602;2023-03-24T07:17:14;15.10;71.76
77052;SHT30;65980;44.898;8.602;2023-03-24T07:20:47;15.03;72.20
77052;SHT30;65980;44.898;8.602;2023-03-24T07:23:56;14.97;72.60
77052;SHT30;65980;44.898;8.602;2023-03-24T07:27:11;15.11;72.09
77052;SHT30;65980;44.898;8.602;2023-03-24T07:30:15;15.23;72.04
77052;SHT30;65980;44.898;8.602;2023-03-24T07:33:24;15.08;72.25
77052;SHT30;65980;44.898;8.602;2023-03-24T07:36:29;15.25;72.10
77052;SHT30;65980;44.898;8.602;2023-03-24T07:39:34;15.34;71.95
77052;SHT30;65980;44.898;8.602;2023-03-24T07:42:41;15.51;71.93
77052;SHT30;65980;44.898;8.602;2023-03-24T07:46:04;15.62;70.79
77052;SHT30;65980;44.898;8.602;2023-03-24T07:49:10;15.70;70.65
77052;SHT30;65980;44.898;8.602;2023-03-24T07:52:14;15.74;71.15
77052;SHT30;65980;44.898;8.602;2023-03-24T07:55:25;16.01;70.30
77052;SHT30;65980;44.898;8.602;2023-03-24T07:58:33;16.25;69.88
77052;SHT30;65980;44.898;8.602;2023-03-24T08:01:50;16.38;68.62
77052;SHT30;65980;44.898;8.602;2023-03-24T08:04:59;16.47;68.21
77052;SHT30;65980;44.898;8.602;2023-03-24T08:08:23;16.07;68.94
77052;SHT30;65980;44.898;8.602;2023-03-24T08:11:28;16.14;68.20
77052;SHT30;65980;44.898;8.602;2023-03-24T08:14:32;16.24;66.95
77052;SHT30;65980;44.898;8.602;2023-03-24T08:17:35;16.40;65.88
77052;SHT30;65980;44.898;8.602;2023-03-24T08:20:39;16.24;66.11
77052;SHT30;65980;44.898;8.602;2023-03-24T08:23:43;16.38;66.11
77052;SHT30;65980;44.898;8.602;2023-03-24T08:26:48;16.52;65.65
77052;SHT30;65980;44.898;8.602;2023-03-24T08:29:52;16.52;64.77
77052;SHT30;65980;44.898;8.602;2023-03-24T08:32:59;16.53;64.58
77052;SHT30;65980;44.898;8.602;2023-03-24T08:36:03;16.63;64.77
77052;SHT30;65980;44.898;8.602;2023-03-24T08:39:07;16.41;65.59
77052;SHT30;65980;44.898;8.602;2023-03-24T08:42:12;16.82;65.65
77052;SHT30;65980;44.898;8.602;2023-03-24T08:45:18;16.59;65.77
77052;SHT30;65980;44.898;8.602;2023-03-24T08:48:33;16.56;66.78
77052;SHT30;65980;44.898;8.602;2023-03-24T08:51:44;17.10;65.86
77052;SHT30;65980;44.898;8.602;2023-03-24T09:00:52;16.89;63.89
77052;SHT30;65980;44.898;8.602;2023-03-24T09:11:51;18.42;59.21
77052;SHT30;65980;44.898;8.602;2023-03-24T09:14:55;18.97;57.71
77052;SHT30;65980;44.898;8.602;2023-03-24T09:21:57;20.12;55.26
77052;SHT30;65980;44.898;8.602;2023-03-24T09:28:28;20.95;52.40
77052;SHT30;65980;44.898;8.602;2023-03-24T09:31:33;20.37;53.17
77052;SHT30;65980;44.898;8.602;2023-03-24T09:35:14;19.41;55.54
77052;SHT30;65980;44.898;8.602;2023-03-24T09:38:26;19.51;55.37
77052;SHT30;65980;44.898;8.602;2023-03-24T09:41:30;20.00;54.83
77052;SHT30;65980;44.898;8.602;2023-03-24T09:48:41;21.69;50.33
77052;SHT30;65980;44.898;8.602;2023-03-24T09:51:50;22.30;48.33
77052;SHT30;65980;44.898;8.602;2023-03-24T10:06:29;23.76;44.25
77052;SHT30;65980;44.898;8.602;2023-03-24T10:13:53;20.95;50.60
77052;SHT30;65980;44.898;8.602;2023-03-24T10:29:40;19.39;54.48
77052;SHT30;65980;44.898;8.602;2023-03-24T10:38:16;19.61;53.52
77052;SHT30;65980;44.898;8.602;2023-03-24T10:42:17;19.79;54.21
77052;SHT30;65980;44.898;8.602;2023-03-24T10:57:04;19.27;53.28
77052;SHT30;65980;44.898;8.602;2023-03-24T11:03:41;19.83;52.60
77052;SHT30;65980;44.898;8.602;2023-03-24T11:10:47;20.23;51.38
77052;SHT30;65980;44.898;8.602;2023-03-24T11:14:21;20.17;49.74
77052;SHT30;65980;44.898;8.602;2023-03-24T11:18:27;20.10;51.11
77052;SHT30;65980;44.898;8.602;2023-03-24T11:21:18;20.21;49.62
77052;SHT30;65980;44.898;8.602;2023-03-24T11:24:24;20.31;49.47
77052;SHT30;65980;44.898;8.602;2023-03-24T11:27:56;20.28;50.27
77052;SHT30;65980;44.898;8.602;2023-03-24T11:31:07;20.99;48.41
77052;SHT30;65980;44.898;8.602;2023-03-24T11:37:46;21.40;47.55
77052;SHT30;65980;44.898;8.602;2023-03-24T11:45:42;20.93;49.45
77052;SHT30;65980;44.898;8.602;2023-03-24T11:48:49;20.96;48.57
77052;SHT30;65980;44.898;8.602;2023-03-24T11:59:46;20.71;49.88
77052;SHT30;65980;44.898;8.602;2023-03-24T12:05:58;20.01;51.50
77052;SHT30;65980;44.898;8.602;2023-03-24T12:09:39;19.89;51.42
77052;SHT30;65980;44.898;8.602;2023-03-24T12:13:04;20.00;51.37
77052;SHT30;65980;44.898;8.602;2023-03-24T12:16:42;19.76;52.92
77052;SHT30;65980;44.898;8.602;2023-03-24T12:20:20;19.72;52.55
77052;SHT30;65980;44.898;8.602;2023-03-24T12:26:32;19.31;52.56
77052;SHT30;65980;44.898;8.602;2023-03-24T12:30:12;19.41;51.39
77052;SHT30;65980;44.898;8.602;2023-03-24T12:36:58;19.47;51.51
77052;SHT30;65980;44.898;8.602;2023-03-24T12:47:06;19.44;53.04
77052;SHT30;65980;44.898;8.602;2023-03-24T12:57:00;18.83;53.67
77052;SHT30;65980;44.898;8.602;2023-03-24T13:00:08;18.99;52.94
77052;SHT30;65980;44.898;8.602;2023-03-24T13:03:20;19.13;52.54
77052;SHT30;65980;44.898;8.602;2023-03-24T13:06:40;18.93;53.63
77052;SHT30;65980;44.898;8.602;2023-03-24T13:09:56;19.15;53.19
77052;SHT30;65980;44.898;8.602;2023-03-24T13:16:20;19.24;53.80
77052;SHT30;65980;44.898;8.602;2023-03-24T13:19:28;19.06;53.27
77052;SHT30;65980;44.898;8.602;2023-03-24T13:22:34;19.03;54.47
77052;SHT30;65980;44.898;8.602;2023-03-24T13:25:48;18.86;53.60
77052;SHT30;65980;44.898;8.602;2023-03-24T13:29:00;18.75;54.05
77052;SHT30;65980;44.898;8.602;2023-03-24T13:32:12;19.04;53.97
77052;SHT30;65980;44.898;8.602;2023-03-24T13:35:22;18.95;54.43
77052;SHT30;65980;44.898;8.602;2023-03-24T13:38:34;18.99;54.16
77052;SHT30;65980;44.898;8.602;2023-03-24T13:41:40;19.04;54.09
77052;SHT30;65980;44.898;8.602;2023-03-24T13:44:51;18.42;55.14
77052;SHT30;65980;44.898;8.602;2023-03-24T13:51:16;18.70;54.51
77052;SHT30;65980;44.898;8.602;2023-03-24T13:54:30;18.80;54.59
77052;SHT30;65980;44.898;8.602;2023-03-24T13:57:39;18.68;54.98
77052;SHT30;65980;44.898;8.602;2023-03-24T14:07:31;18.73;54.79
77052;SHT30;65980;44.898;8.602;2023-03-24T14:13:46;18.89;54.62
77052;SHT30;65980;44.898;8.602;2023-03-24T14:20:10;18.56;55.85
77052;SHT30;65980;44.898;8.602;2023-03-24T14:23:19;18.65;55.57
77052;SHT30;65980;44.898;8.602;2023-03-24T14:26:34;18.63;55.39
77052;SHT30;65980;44.898;8.602;2023-03-24T14:29:39;18.72;55.76
77052;SHT30;65980;44.898;8.602;2023-03-24T14:32:51;18.72;55.51
77052;SHT30;65980;44.898;8.602;2023-03-24T14:36:05;18.68;55.65
77052;SHT30;65980;44.898;8.602;2023-03-24T14:42:52;18.51;55.86
77052;SHT30;65980;44.898;8.602;2023-03-24T14:49:28;18.41;56.91
77052;SHT30;65980;44.898;8.602;2023-03-24T14:52:47;18.38;56.61
77052;SHT30;65980;44.898;8.602;2023-03-24T14:55:53;18.11;58.02
77052;SHT30;65980;44.898;8.602;2023-03-24T14:58:58;18.00;57.83
77052;SHT30;65980;44.898;8.602;2023-03-24T15:05:30;17.59;58.75
77052;SHT30;65980;44.898;8.602;2023-03-24T15:08:38;17.75;58.21
77052;SHT30;65980;44.898;8.602;2023-03-24T15:11:42;17.62;59.11
77052;SHT30;65980;44.898;8.602;2023-03-24T15:14:47;17.56;59.52
77052;SHT30;65980;44.898;8.602;2023-03-24T15:17:51;17.62;59.71
77052;SHT30;65980;44.898;8.602;2023-03-24T15:20:59;17.56;59.89
77052;SHT30;65980;44.898;8.602;2023-03-24T15:24:25;17.65;59.95
77052;SHT30;65980;44.898;8.602;2023-03-24T15:27:27;17.42;59.91
77052;SHT30;65980;44.898;8.602;2023-03-24T15:30:32;17.39;60.04
77052;SHT30;65980;44.898;8.602;2023-03-24T15:33:40;17.18;60.49
77052;SHT30;65980;44.898;8.602;2023-03-24T15:36:55;17.20;60.94
77052;SHT30;65980;44.898;8.602;2023-03-24T15:40:38;17.00;61.75
77052;SHT30;65980;44.898;8.602;2023-03-24T15:43:45;17.27;61.13
77052;SHT30;65980;44.898;8.602;2023-03-24T15:46:50;17.17;61.08
77052;SHT30;65980;44.898;8.602;2023-03-24T15:49:58;17.18;60.85
77052;SHT30;65980;44.898;8.602;2023-03-24T15:53:47;17.24;61.09
77052;SHT30;65980;44.898;8.602;2023-03-24T15:56:31;17.13;61.12
77052;SHT30;65980;44.898;8.602;2023-03-24T15:59:41;17.11;61.11
77052;SHT30;65980;44.898;8.602;2023-03-24T16:02:53;16.94;61.54
77052;SHT30;65980;44.898;8.602;2023-03-24T16:05:57;16.94;61.81
77052;SHT30;65980;44.898;8.602;2023-03-24T16:09:06;16.96;61.79
77052;SHT30;65980;44.898;8.602;2023-03-24T16:12:13;16.90;62.28
77052;SHT30;65980;44.898;8.602;2023-03-24T16:15:17;16.84;62.20
77052;SHT30;65980;44.898;8.602;2023-03-24T16:18:24;16.69;62.77
77052;SHT30;65980;44.898;8.602;2023-03-24T16:21:29;16.66;62.67
77052;SHT30;65980;44.898;8.602;2023-03-24T16:24:33;16.55;62.93
77052;SHT30;65980;44.898;8.602;2023-03-24T16:27:36;16.48;63.39
77052;SHT30;65980;44.898;8.602;2023-03-24T16:30:40;16.49;63.54
77052;SHT30;65980;44.898;8.602;2023-03-24T16:33:51;16.45;64.05
77052;SHT30;65980;44.898;8.602;2023-03-24T16:36:57;16.65;63.62
77052;SHT30;65980;44.898;8.602;2023-03-24T16:40:18;16.61;63.70
77052;SHT30;65980;44.898;8.602;2023-03-24T16:43:24;16.63;63.77
77052;SHT30;65980;44.898;8.602;2023-03-24T16:46:30;16.61;64.00
77052;SHT30;65980;44.898;8.602;2023-03-24T16:49:36;16.62;63.79
77052;SHT30;65980;44.898;8.602;2023-03-24T16:56:16;16.38;64.94
77052;SHT30;65980;44.898;8.602;2023-03-24T16:59:20;16.01;66.13
77052;SHT30;65980;44.898;8.602;2023-03-24T17:02:29;15.91;66.46
77052;SHT30;65980;44.898;8.602;2023-03-24T17:05:45;16.01;65.69
77052;SHT30;65980;44.898;8.602;2023-03-24T17:08:51;15.79;66.35
77052;SHT30;65980;44.898;8.602;2023-03-24T17:11:56;15.66;66.54
77052;SHT30;65980;44.898;8.602;2023-03-24T17:15:02;15.85;66.28
77052;SHT30;65980;44.898;8.602;2023-03-24T17:18:07;15.69;66.99
77052;SHT30;65980;44.898;8.602;2023-03-24T17:21:14;15.85;66.70
77052;SHT30;65980;44.898;8.602;2023-03-24T17:24:19;15.89;66.67
77052;SHT30;65980;44.898;8.602;2023-03-24T17:27:23;15.73;67.17
77052;SHT30;65980;44.898;8.602;2023-03-24T17:33:58;15.49;68.30
77052;SHT30;65980;44.898;8.602;2023-03-24T17:37:01;15.45;68.26
77052;SHT30;65980;44.898;8.602;2023-03-24T17:40:08;15.49;68.49
77052;SHT30;65980;44.898;8.602;2023-03-24T17:43:14;15.28;69.10
77052;SHT30;65980;44.898;8.602;2023-03-24T17:46:18;15.24;69.54
77052;SHT30;65980;44.898;8.602;2023-03-24T17:49:23;15.16;69.77
77052;SHT30;65980;44.898;8.602;2023-03-24T17:52:31;15.31;69.26
77052;SHT30;65980;44.898;8.602;2023-03-24T17:55:36;15.35;69.13
77052;SHT30;65980;44.898;8.602;2023-03-24T17:58:44;15.28;69.04
77052;SHT30;65980;44.898;8.602;2023-03-24T18:01:52;15.21;69.46
77052;SHT30;65980;44.898;8.602;2023-03-24T18:05:00;15.17;69.91
77052;SHT30;65980;44.898;8.602;2023-03-24T18:08:07;15.08;70.22
77052;SHT30;65980;44.898;8.602;2023-03-24T18:11:15;15.21;69.76
77052;SHT30;65980;44.898;8.602;2023-03-24T18:14:19;15.21;69.98
77052;SHT30;65980;44.898;8.602;2023-03-24T18:17:24;15.21;70.08
77052;SHT30;65980;44.898;8.602;2023-03-24T18:23:59;15.20;70.18
77052;SHT30;65980;44.898;8.602;2023-03-24T18:27:04;15.30;69.81
77052;SHT30;65980;44.898;8.602;2023-03-24T18:30:13;15.38;69.58
77052;SHT30;65980;44.898;8.602;2023-03-24T18:33:17;15.28;70.01
77052;SHT30;65980;44.898;8.602;2023-03-24T18:36:21;14.94;70.98
77052;SHT30;65980;44.898;8.602;2023-03-24T18:39:30;15.12;70.30
77052;SHT30;65980;44.898;8.602;2023-03-24T18:42:35;15.01;70.30
77052;SHT30;65980;44.898;8.602;2023-03-24T18:45:39;15.00;70.36
77052;SHT30;65980;44.898;8.602;2023-03-24T18:48:44;15.04;69.89
77052;SHT30;65980;44.898;8.602;2023-03-24T18:51:54;15.20;69.57
77052;SHT30;65980;44.898;8.602;2023-03-24T18:54:58;15.11;70.02
77052;SHT30;65980;44.898;8.602;2023-03-24T18:58:04;15.10;69.92
77052;SHT30;65980;44.898;8.602;2023-03-24T19:01:17;15.07;70.12
77052;SHT30;65980;44.898;8.602;2023-03-24T19:04:25;15.14;69.87
77052;SHT30;65980;44.898;8.602;2023-03-24T19:07:29;15.30;69.43
77052;SHT30;65980;44.898;8.602;2023-03-24T19:10:40;15.32;69.39
77052;SHT30;65980;44.898;8.602;2023-03-24T19:13:46;15.34;69.34
77052;SHT30;65980;44.898;8.602;2023-03-24T19:16:52;15.27;69.34
77052;SHT30;65980;44.898;8.602;2023-03-24T19:19:59;15.18;69.68
77052;SHT30;65980;44.898;8.602;2023-03-24T19:23:07;15.23;69.94
77052;SHT30;65980;44.898;8.602;2023-03-24T19:26:11;15.30;69.54
77052;SHT30;65980;44.898;8.602;2023-03-24T19:29:16;15.32;69.58
77052;SHT30;65980;44.898;8.602;2023-03-24T19:32:20;15.08;70.48
77052;SHT30;65980;44.898;8.602;2023-03-24T19:35:25;15.07;70.70
77052;SHT30;65980;44.898;8.602;2023-03-24T19:38:29;15.21;70.35
77052;SHT30;65980;44.898;8.602;2023-03-24T19:41:38;15.31;70.03
77052;SHT30;65980;44.898;8.602;2023-03-24T19:44:52;15.24;70.23
77052;SHT30;65980;44.898;8.602;2023-03-24T19:48:00;15.34;69.83
77052;SHT30;65980;44.898;8.602;2023-03-24T19:51:04;15.36;69.79
77052;SHT30;65980;44.898;8.602;2023-03-24T19:54:14;15.32;70.12
77052;SHT30;65980;44.898;8.602;2023-03-24T19:57:19;15.51;69.53
77052;SHT30;65980;44.898;8.602;2023-03-24T20:00:27;15.62;69.26
77052;SHT30;65980;44.898;8.602;2023-03-24T20:03:33;15.55;69.78
77052;SHT30;65980;44.898;8.602;2023-03-24T20:06:41;15.52;69.61
77052;SHT30;65980;44.898;8.602;2023-03-24T20:09:48;15.63;69.53
77052;SHT30;65980;44.898;8.602;2023-03-24T20:12:52;15.54;69.87
77052;SHT30;65980;44.898;8.602;2023-03-24T20:15:56;15.54;69.82
77052;SHT30;65980;44.898;8.602;2023-03-24T20:19:01;15.48;70.14
77052;SHT30;65980;44.898;8.602;2023-03-24T20:22:04;15.44;70.25
77052;SHT30;65980;44.898;8.602;2023-03-24T20:25:08;15.42;70.47
77052;SHT30;65980;44.898;8.602;2023-03-24T20:28:13;15.56;70.08
77052;SHT30;65980;44.898;8.602;2023-03-24T20:31:17;15.54;70.16
77052;SHT30;65980;44.898;8.602;2023-03-24T20:34:21;15.28;71.11
77052;SHT30;65980;44.898;8.602;2023-03-24T20:37:26;15.41;70.54
77052;SHT30;65980;44.898;8.602;2023-03-24T20:40:33;15.39;70.56
77052;SHT30;65980;44.898;8.602;2023-03-24T20:43:37;15.41;70.88
77052;SHT30;65980;44.898;8.602;2023-03-24T20:46:41;15.23;71.37
77052;SHT30;65980;44.898;8.602;2023-03-24T20:49:45;15.34;71.16
77052;SHT30;65980;44.898;8.602;2023-03-24T20:52:49;15.41;70.84
77052;SHT30;65980;44.898;8.602;2023-03-24T20:59:03;15.30;71.40
77052;SHT30;65980;44.898;8.602;2023-03-24T21:02:09;15.32;71.55
77052;SHT30;65980;44.898;8.602;2023-03-24T21:05:14;15.28;71.55
77052;SHT30;65980;44.898;8.602;2023-03-24T21:08:18;15.35;71.18
77052;SHT30;65980;44.898;8.602;2023-03-24T21:11:22;15.28;71.69
77052;SHT30;65980;44.898;8.602;2023-03-24T21:14:27;15.34;71.39
77052;SHT30;65980;44.898;8.602;2023-03-24T21:17:34;15.27;71.56
77052;SHT30;65980;44.898;8.602;2023-03-24T21:20:39;15.16;71.87
77052;SHT30;65980;44.898;8.602;2023-03-24T21:23:45;15.12;72.32
77052;SHT30;65980;44.898;8.602;2023-03-24T21:26:49;15.17;71.92
77052;SHT30;65980;44.898;8.602;2023-03-24T21:29:53;14.87;72.86
77052;SHT30;65980;44.898;8.602;2023-03-24T21:32:57;14.80;73.33
77052;SHT30;65980;44.898;8.602;2023-03-24T21:36:01;15.04;72.49
77052;SHT30;65980;44.898;8.602;2023-03-24T21:39:05;14.94;72.92
77052;SHT30;65980;44.898;8.602;2023-03-24T21:42:14;15.06;72.54
77052;SHT30;65980;44.898;8.602;2023-03-24T21:45:21;14.73;73.67
77052;SHT30;65980;44.898;8.602;2023-03-24T21:48:26;14.84;73.45
77052;SHT30;65980;44.898;8.602;2023-03-24T21:51:31;14.79;73.39
77052;SHT30;65980;44.898;8.602;2023-03-24T21:54:39;14.80;73.23
77052;SHT30;65980;44.898;8.602;2023-03-24T21:57:44;14.83;73.26
77052;SHT30;65980;44.898;8.602;2023-03-24T22:00:48;14.66;73.88
77052;SHT30;65980;44.898;8.602;2023-03-24T22:03:53;14.72;73.85
77052;SHT30;65980;44.898;8.602;2023-03-24T22:07:01;14.71;73.33
77052;SHT30;65980;44.898;8.602;2023-03-24T22:10:10;14.77;73.42
77052;SHT30;65980;44.898;8.602;2023-03-24T22:13:17;14.49;74.31
77052;SHT30;65980;44.898;8.602;2023-03-24T22:16:21;14.62;74.02
77052;SHT30;65980;44.898;8.602;2023-03-24T22:19:25;14.55;74.27
77052;SHT30;65980;44.898;8.602;2023-03-24T22:22:31;14.45;74.76
77052;SHT30;65980;44.898;8.602;2023-03-24T22:25:35;14.58;74.49
77052;SHT30;65980;44.898;8.602;2023-03-24T22:28:42;14.58;74.25
77052;SHT30;65980;44.898;8.602;2023-03-24T22:31:46;14.55;74.11
77052;SHT30;65980;44.898;8.602;2023-03-24T22:34:50;14.38;74.86
77052;SHT30;65980;44.898;8.602;2023-03-24T22:37:54;14.49;74.70
77052;SHT30;65980;44.898;8.602;2023-03-24T22:41:03;14.38;75.14
77052;SHT30;65980;44.898;8.602;2023-03-24T22:44:07;14.16;75.66
77052;SHT30;65980;44.898;8.602;2023-03-24T22:47:13;14.04;76.16
77052;SHT30;65980;44.898;8.602;2023-03-24T22:50:18;14.21;75.75
77052;SHT30;65980;44.898;8.602;2023-03-24T22:53:23;14.24;75.68
77052;SHT30;65980;44.898;8.602;2023-03-24T22:56:28;14.18;75.82
77052;SHT30;65980;44.898;8.602;2023-03-24T22:59:34;13.96;76.64
77052;SHT30;65980;44.898;8.602;2023-03-24T23:02:38;14.03;76.07
77052;SHT30;65980;44.898;8.602;2023-03-24T23:05:44;14.14;75.58
77052;SHT30;65980;44.898;8.602;2023-03-24T23:08:48;14.25;74.98
77052;SHT30;65980;44.898;8.602;2023-03-24T23:11:54;14.18;75.02
77052;SHT30;65980;44.898;8.602;2023-03-24T23:14:59;14.25;75.26
77052;SHT30;65980;44.898;8.602;2023-03-24T23:18:03;13.90;76.32
77052;SHT30;65980;44.898;8.602;2023-03-24T23:21:14;14.18;75.13
77052;SHT30;65980;44.898;8.602;2023-03-24T23:24:22;13.89;76.03